< < Back
Terminal Aerodrome Forecast


Current Version              Previous Versions:   1  2  3  4  5  6  7  8  9  

Terminal Aerodrome Forecast

488
FTUS44 KBMX 241100
TAFMGM
TAF
KMGM 241120Z 2412/2512 VRB03KT P6SM SCT250
     FM241800 34007KT P6SM SKC
     FM250100 32003KT P6SM SKC=

Latest METAR

215
SAUS80 KWBC 241600 RRB
MTRMGM
METAR KMGM 241553Z 01003KT 10SM CLR 20/09 A3009 RMK AO2 SLP186
T02000094


USA.gov is the U.S. government's official web portal to all federal, state and local government web resources and services.